sensor_id;sensor_type;location;lat;lon;timestamp;P1;durP1;ratioP1;P2;durP2;ratioP2
17169;SDS011;8700;48.222;16.342;2022-09-12T00:00:14;8.32;;;7.72;;
17169;SDS011;8700;48.222;16.342;2022-09-12T00:03:36;8.15;;;7.55;;
17169;SDS011;8700;48.222;16.342;2022-09-12T00:06:59;7.82;;;7.30;;
17169;SDS011;8700;48.222;16.342;2022-09-12T00:10:20;8.30;;;7.60;;
17169;SDS011;8700;48.222;16.342;2022-09-12T00:13:43;7.85;;;7.35;;
17169;SDS011;8700;48.222;16.342;2022-09-12T00:17:05;7.95;;;7.35;;
17169;SDS011;8700;48.222;16.342;2022-09-12T00:20:26;8.55;;;7.95;;
17169;SDS011;8700;48.222;16.342;2022-09-12T00:23:48;9.10;;;8.43;;
17169;SDS011;8700;48.222;16.342;2022-09-12T00:27:09;8.50;;;7.80;;
17169;SDS011;8700;48.222;16.342;2022-09-12T00:30:32;7.85;;;7.25;;
17169;SDS011;8700;48.222;16.342;2022-09-12T00:33:54;8.63;;;7.90;;
17169;SDS011;8700;48.222;16.342;2022-09-12T00:37:18;8.18;;;7.57;;
17169;SDS011;8700;48.222;16.342;2022-09-12T00:40:40;8.88;;;8.07;;
17169;SDS011;8700;48.222;16.342;2022-09-12T00:44:03;9.13;;;7.25;;
17169;SDS011;8700;48.222;16.342;2022-09-12T00:48:05;8.50;;;7.65;;
17169;SDS011;8700;48.222;16.342;2022-09-12T00:51:33;8.93;;;8.23;;
17169;SDS011;8700;48.222;16.342;2022-09-12T00:54:57;8.70;;;8.05;;
17169;SDS011;8700;48.222;16.342;2022-09-12T00:58:23;8.23;;;7.60;;
17169;SDS011;8700;48.222;16.342;2022-09-12T01:01:49;7.97;;;7.38;;
17169;SDS011;8700;48.222;16.342;2022-09-12T01:05:13;8.82;;;8.10;;
17169;SDS011;8700;48.222;16.342;2022-09-12T01:08:34;8.40;;;7.80;;
17169;SDS011;8700;48.222;16.342;2022-09-12T01:11:59;9.20;;;8.60;;
17169;SDS011;8700;48.222;16.342;2022-09-12T01:15:22;9.00;;;8.25;;
17169;SDS011;8700;48.222;16.342;2022-09-12T01:18:50;8.90;;;8.25;;
17169;SDS011;8700;48.222;16.342;2022-09-12T01:22:27;8.23;;;7.70;;
17169;SDS011;8700;48.222;16.342;2022-09-12T01:26:07;8.48;;;7.78;;
17169;SDS011;8700;48.222;16.342;2022-09-12T01:29:46;10.02;;;9.10;;
17169;SDS011;8700;48.222;16.342;2022-09-12T01:33:44;10.05;;;9.13;;
17169;SDS011;8700;48.222;16.342;2022-09-12T01:37:16;9.75;;;8.85;;
17169;SDS011;8700;48.222;16.342;2022-09-12T01:40:44;10.20;;;9.32;;
17169;SDS011;8700;48.222;16.342;2022-09-12T01:44:12;9.98;;;9.07;;
17169;SDS011;8700;48.222;16.342;2022-09-12T01:47:41;10.13;;;9.18;;
17169;SDS011;8700;48.222;16.342;2022-09-12T01:51:11;9.95;;;9.25;;
17169;SDS011;8700;48.222;16.342;2022-09-12T01:54:42;10.55;;;9.65;;
17169;SDS011;8700;48.222;16.342;2022-09-12T01:58:08;10.18;;;9.38;;
17169;SDS011;8700;48.222;16.342;2022-09-12T02:01:35;10.35;;;9.55;;
17169;SDS011;8700;48.222;16.342;2022-09-12T02:05:02;10.20;;;9.50;;
17169;SDS011;8700;48.222;16.342;2022-09-12T02:08:30;10.30;;;9.50;;
17169;SDS011;8700;48.222;16.342;2022-09-12T02:11:56;9.95;;;9.15;;
17169;SDS011;8700;48.222;16.342;2022-09-12T02:15:20;11.13;;;10.02;;
17169;SDS011;8700;48.222;16.342;2022-09-12T02:18:48;10.30;;;9.50;;
17169;SDS011;8700;48.222;16.342;2022-09-12T02:22:13;10.80;;;9.82;;
17169;SDS011;8700;48.222;16.342;2022-09-12T02:25:39;9.40;;;8.80;;
17169;SDS011;8700;48.222;16.342;2022-09-12T02:29:04;10.82;;;9.95;;
17169;SDS011;8700;48.222;16.342;2022-09-12T02:32:27;10.70;;;9.90;;
17169;SDS011;8700;48.222;16.342;2022-09-12T02:35:52;9.98;;;9.27;;
17169;SDS011;8700;48.222;16.342;2022-09-12T02:39:20;11.32;;;10.50;;
17169;SDS011;8700;48.222;16.342;2022-09-12T02:42:43;11.23;;;10.25;;
17169;SDS011;8700;48.222;16.342;2022-09-12T02:46:05;10.25;;;9.55;;
17169;SDS011;8700;48.222;16.342;2022-09-12T02:49:35;10.45;;;9.75;;
17169;SDS011;8700;48.222;16.342;2022-09-12T02:52:57;10.65;;;9.85;;
17169;SDS011;8700;48.222;16.342;2022-09-12T02:56:23;11.10;;;10.20;;
17169;SDS011;8700;48.222;16.342;2022-09-12T02:59:49;11.85;;;10.95;;
17169;SDS011;8700;48.222;16.342;2022-09-12T03:03:25;11.52;;;10.65;;
17169;SDS011;8700;48.222;16.342;2022-09-12T03:07:02;11.30;;;10.40;;
17169;SDS011;8700;48.222;16.342;2022-09-12T03:10:34;11.05;;;10.20;;
17169;SDS011;8700;48.222;16.342;2022-09-12T03:14:06;12.43;;;11.40;;
17169;SDS011;8700;48.222;16.342;2022-09-12T03:17:42;11.55;;;10.50;;
17169;SDS011;8700;48.222;16.342;2022-09-12T03:21:17;11.55;;;10.55;;
17169;SDS011;8700;48.222;16.342;2022-09-12T03:24:46;11.77;;;10.65;;
17169;SDS011;8700;48.222;16.342;2022-09-12T03:28:14;11.48;;;10.45;;
17169;SDS011;8700;48.222;16.342;2022-09-12T03:31:38;11.60;;;10.73;;
17169;SDS011;8700;48.222;16.342;2022-09-12T03:35:10;11.68;;;10.68;;
17169;SDS011;8700;48.222;16.342;2022-09-12T03:38:32;11.52;;;10.63;;
17169;SDS011;8700;48.222;16.342;2022-09-12T03:41:54;12.20;;;11.20;;
17169;SDS011;8700;48.222;16.342;2022-09-12T03:45:16;13.43;;;12.27;;
17169;SDS011;8700;48.222;16.342;2022-09-12T03:48:38;14.32;;;12.80;;
17169;SDS011;8700;48.222;16.342;2022-09-12T03:52:01;13.38;;;12.32;;
17169;SDS011;8700;48.222;16.342;2022-09-12T03:55:22;12.50;;;11.40;;
17169;SDS011;8700;48.222;16.342;2022-09-12T03:58:44;14.88;;;13.48;;
17169;SDS011;8700;48.222;16.342;2022-09-12T04:02:06;13.60;;;12.38;;
17169;SDS011;8700;48.222;16.342;2022-09-12T04:05:28;12.85;;;11.75;;
17169;SDS011;8700;48.222;16.342;2022-09-12T04:08:52;12.82;;;11.77;;
17169;SDS011;8700;48.222;16.342;2022-09-12T04:12:14;13.38;;;12.32;;
17169;SDS011;8700;48.222;16.342;2022-09-12T04:15:35;12.88;;;11.65;;
17169;SDS011;8700;48.222;16.342;2022-09-12T04:18:57;13.50;;;12.40;;
17169;SDS011;8700;48.222;16.342;2022-09-12T04:22:19;13.30;;;12.20;;
17169;SDS011;8700;48.222;16.342;2022-09-12T04:25:41;11.60;;;10.60;;
17169;SDS011;8700;48.222;16.342;2022-09-12T04:29:02;13.45;;;12.25;;
17169;SDS011;8700;48.222;16.342;2022-09-12T04:32:24;13.02;;;11.85;;
17169;SDS011;8700;48.222;16.342;2022-09-12T04:35:46;11.73;;;10.63;;
17169;SDS011;8700;48.222;16.342;2022-09-12T04:39:09;11.73;;;10.80;;
17169;SDS011;8700;48.222;16.342;2022-09-12T04:42:32;11.15;;;10.25;;
17169;SDS011;8700;48.222;16.342;2022-09-12T04:45:55;11.25;;;10.20;;
17169;SDS011;8700;48.222;16.342;2022-09-12T04:49:24;11.38;;;10.52;;
17169;SDS011;8700;48.222;16.342;2022-09-12T04:52:48;10.60;;;9.80;;
17169;SDS011;8700;48.222;16.342;2022-09-12T04:56:10;9.90;;;9.20;;
17169;SDS011;8700;48.222;16.342;2022-09-12T04:59:33;11.07;;;10.07;;
17169;SDS011;8700;48.222;16.342;2022-09-12T05:02:54;10.07;;;9.20;;
17169;SDS011;8700;48.222;16.342;2022-09-12T05:06:17;11.05;;;9.95;;
17169;SDS011;8700;48.222;16.342;2022-09-12T05:09:40;10.35;;;9.55;;
17169;SDS011;8700;48.222;16.342;2022-09-12T05:13:01;11.55;;;10.45;;
17169;SDS011;8700;48.222;16.342;2022-09-12T05:16:26;12.10;;;11.00;;
17169;SDS011;8700;48.222;16.342;2022-09-12T05:19:49;10.68;;;9.68;;
17169;SDS011;8700;48.222;16.342;2022-09-12T05:23:11;13.20;;;12.13;;
17169;SDS011;8700;48.222;16.342;2022-09-12T05:26:32;10.73;;;9.82;;
17169;SDS011;8700;48.222;16.342;2022-09-12T05:29:53;11.00;;;10.10;;
17169;SDS011;8700;48.222;16.342;2022-09-12T05:33:17;14.25;;;13.02;;
17169;SDS011;8700;48.222;16.342;2022-09-12T05:36:39;10.88;;;9.98;;
17169;SDS011;8700;48.222;16.342;2022-09-12T05:40:00;11.48;;;10.45;;
17169;SDS011;8700;48.222;16.342;2022-09-12T05:43:26;12.38;;;11.38;;
17169;SDS011;8700;48.222;16.342;2022-09-12T05:46:47;12.70;;;11.60;;
17169;SDS011;8700;48.222;16.342;2022-09-12T05:50:11;10.88;;;9.95;;
17169;SDS011;8700;48.222;16.342;2022-09-12T05:53:33;11.15;;;10.23;;
17169;SDS011;8700;48.222;16.342;2022-09-12T05:56:55;10.65;;;9.75;;
17169;SDS011;8700;48.222;16.342;2022-09-12T06:00:17;10.75;;;9.93;;
17169;SDS011;8700;48.222;16.342;2022-09-12T06:03:40;13.02;;;11.65;;
17169;SDS011;8700;48.222;16.342;2022-09-12T06:07:04;12.65;;;11.40;;
17169;SDS011;8700;48.222;16.342;2022-09-12T06:10:25;8.75;;;8.10;;
17169;SDS011;8700;48.222;16.342;2022-09-12T06:13:47;9.70;;;8.82;;
17169;SDS011;8700;48.222;16.342;2022-09-12T06:17:09;11.93;;;10.73;;
17169;SDS011;8700;48.222;16.342;2022-09-12T06:20:30;9.73;;;8.93;;
17169;SDS011;8700;48.222;16.342;2022-09-12T06:23:54;10.18;;;9.40;;
17169;SDS011;8700;48.222;16.342;2022-09-12T06:27:17;11.25;;;10.48;;
17169;SDS011;8700;48.222;16.342;2022-09-12T06:30:39;10.45;;;9.65;;
17169;SDS011;8700;48.222;16.342;2022-09-12T06:34:01;10.18;;;9.40;;
17169;SDS011;8700;48.222;16.342;2022-09-12T06:37:24;10.00;;;9.18;;
17169;SDS011;8700;48.222;16.342;2022-09-12T06:40:46;10.75;;;9.75;;
17169;SDS011;8700;48.222;16.342;2022-09-12T06:44:09;9.18;;;8.38;;
17169;SDS011;8700;48.222;16.342;2022-09-12T06:47:32;14.02;;;12.80;;
17169;SDS011;8700;48.222;16.342;2022-09-12T06:50:54;9.65;;;8.27;;
17169;SDS011;8700;48.222;16.342;2022-09-12T06:54:17;9.18;;;8.27;;
17169;SDS011;8700;48.222;16.342;2022-09-12T06:57:40;9.57;;;8.65;;
17169;SDS011;8700;48.222;16.342;2022-09-12T07:01:02;8.73;;;8.02;;
17169;SDS011;8700;48.222;16.342;2022-09-12T07:04:26;8.80;;;8.10;;
17169;SDS011;8700;48.222;16.342;2022-09-12T07:07:48;8.27;;;7.75;;
17169;SDS011;8700;48.222;16.342;2022-09-12T07:11:11;8.35;;;7.72;;
17169;SDS011;8700;48.222;16.342;2022-09-12T07:14:35;8.13;;;7.53;;
17169;SDS011;8700;48.222;16.342;2022-09-12T07:17:57;8.38;;;7.68;;
17169;SDS011;8700;48.222;16.342;2022-09-12T07:21:19;8.55;;;7.63;;
17169;SDS011;8700;48.222;16.342;2022-09-12T07:24:41;9.55;;;8.75;;
17169;SDS011;8700;48.222;16.342;2022-09-12T07:28:04;23.35;;;21.42;;
17169;SDS011;8700;48.222;16.342;2022-09-12T07:31:27;21.27;;;19.60;;
17169;SDS011;8700;48.222;16.342;2022-09-12T07:34:49;14.63;;;13.52;;
17169;SDS011;8700;48.222;16.342;2022-09-12T07:38:11;11.55;;;10.60;;
17169;SDS011;8700;48.222;16.342;2022-09-12T07:41:32;10.45;;;9.55;;
17169;SDS011;8700;48.222;16.342;2022-09-12T07:44:54;11.20;;;10.20;;
17169;SDS011;8700;48.222;16.342;2022-09-12T07:48:18;10.55;;;9.65;;
17169;SDS011;8700;48.222;16.342;2022-09-12T07:51:39;9.98;;;9.00;;
17169;SDS011;8700;48.222;16.342;2022-09-12T07:55:01;10.32;;;9.32;;
17169;SDS011;8700;48.222;16.342;2022-09-12T07:58:23;11.10;;;10.23;;
17169;SDS011;8700;48.222;16.342;2022-09-12T08:01:45;9.32;;;8.48;;
17169;SDS011;8700;48.222;16.342;2022-09-12T08:05:09;9.98;;;9.07;;
17169;SDS011;8700;48.222;16.342;2022-09-12T08:08:31;8.82;;;8.02;;
17169;SDS011;8700;48.222;16.342;2022-09-12T08:11:54;9.93;;;8.70;;
17169;SDS011;8700;48.222;16.342;2022-09-12T08:15:16;9.30;;;8.60;;
17169;SDS011;8700;48.222;16.342;2022-09-12T08:18:38;8.55;;;7.85;;
17169;SDS011;8700;48.222;16.342;2022-09-12T08:22:01;10.30;;;9.50;;
17169;SDS011;8700;48.222;16.342;2022-09-12T08:25:24;10.60;;;9.75;;
17169;SDS011;8700;48.222;16.342;2022-09-12T08:28:47;8.57;;;7.97;;
17169;SDS011;8700;48.222;16.342;2022-09-12T08:32:09;9.48;;;8.68;;
17169;SDS011;8700;48.222;16.342;2022-09-12T08:35:30;9.75;;;8.95;;
17169;SDS011;8700;48.222;16.342;2022-09-12T08:38:54;8.70;;;8.10;;
17169;SDS011;8700;48.222;16.342;2022-09-12T08:42:19;10.50;;;8.80;;
17169;SDS011;8700;48.222;16.342;2022-09-12T08:45:50;8.57;;;7.82;;
17169;SDS011;8700;48.222;16.342;2022-09-12T08:49:22;8.15;;;7.43;;
17169;SDS011;8700;48.222;16.342;2022-09-12T08:52:51;8.13;;;7.53;;
17169;SDS011;8700;48.222;16.342;2022-09-12T08:56:19;10.15;;;9.35;;
17169;SDS011;8700;48.222;16.342;2022-09-12T08:59:42;8.88;;;8.18;;
17169;SDS011;8700;48.222;16.342;2022-09-12T09:03:11;7.57;;;7.00;;
17169;SDS011;8700;48.222;16.342;2022-09-12T09:10:47;7.82;;;7.22;;
17169;SDS011;8700;48.222;16.342;2022-09-12T09:14:27;8.18;;;7.50;;
17169;SDS011;8700;48.222;16.342;2022-09-12T09:18:11;7.50;;;6.78;;
17169;SDS011;8700;48.222;16.342;2022-09-12T09:21:39;12.50;;;11.60;;
17169;SDS011;8700;48.222;16.342;2022-09-12T09:25:05;7.90;;;7.20;;
17169;SDS011;8700;48.222;16.342;2022-09-12T09:28:32;7.45;;;6.88;;
17169;SDS011;8700;48.222;16.342;2022-09-12T09:31:59;6.18;;;5.78;;
17169;SDS011;8700;48.222;16.342;2022-09-12T09:35:26;5.82;;;5.32;;
17169;SDS011;8700;48.222;16.342;2022-09-12T09:39:03;6.47;;;5.97;;
17169;SDS011;8700;48.222;16.342;2022-09-12T09:42:31;6.47;;;6.00;;
17169;SDS011;8700;48.222;16.342;2022-09-12T09:46:06;8.82;;;6.43;;
17169;SDS011;8700;48.222;16.342;2022-09-12T09:49:42;8.63;;;7.93;;
17169;SDS011;8700;48.222;16.342;2022-09-12T09:53:04;7.35;;;6.80;;
17169;SDS011;8700;48.222;16.342;2022-09-12T09:56:34;6.07;;;5.68;;
17169;SDS011;8700;48.222;16.342;2022-09-12T09:59:59;7.10;;;6.50;;
17169;SDS011;8700;48.222;16.342;2022-09-12T10:03:47;7.03;;;6.45;;
17169;SDS011;8700;48.222;16.342;2022-09-12T10:07:18;6.40;;;5.90;;
17169;SDS011;8700;48.222;16.342;2022-09-12T10:10:51;7.15;;;6.55;;
17169;SDS011;8700;48.222;16.342;2022-09-12T10:14:31;7.40;;;6.80;;
17169;SDS011;8700;48.222;16.342;2022-09-12T10:17:55;7.45;;;6.85;;
17169;SDS011;8700;48.222;16.342;2022-09-12T10:21:20;8.82;;;8.15;;
17169;SDS011;8700;48.222;16.342;2022-09-12T10:24:50;6.85;;;6.30;;
17169;SDS011;8700;48.222;16.342;2022-09-12T10:28:21;5.97;;;5.57;;
17169;SDS011;8700;48.222;16.342;2022-09-12T10:31:47;7.13;;;6.63;;
17169;SDS011;8700;48.222;16.342;2022-09-12T10:35:16;6.50;;;6.10;;
17169;SDS011;8700;48.222;16.342;2022-09-12T10:38:47;6.57;;;6.07;;
17169;SDS011;8700;48.222;16.342;2022-09-12T10:42:13;8.10;;;7.60;;
17169;SDS011;8700;48.222;16.342;2022-09-12T10:45:37;5.80;;;5.40;;
17169;SDS011;8700;48.222;16.342;2022-09-12T10:49:12;6.65;;;6.18;;
17169;SDS011;8700;48.222;16.342;2022-09-12T10:52:43;6.28;;;5.88;;
17169;SDS011;8700;48.222;16.342;2022-09-12T10:56:06;6.07;;;5.68;;
17169;SDS011;8700;48.222;16.342;2022-09-12T10:59:34;5.65;;;5.35;;
17169;SDS011;8700;48.222;16.342;2022-09-12T11:03:05;6.47;;;5.80;;
17169;SDS011;8700;48.222;16.342;2022-09-12T11:06:37;6.13;;;5.63;;
17169;SDS011;8700;48.222;16.342;2022-09-12T11:10:14;5.55;;;5.15;;
17169;SDS011;8700;48.222;16.342;2022-09-12T11:13:48;5.93;;;5.38;;
17169;SDS011;8700;48.222;16.342;2022-09-12T11:17:23;5.97;;;5.50;;
17169;SDS011;8700;48.222;16.342;2022-09-12T11:20:53;7.47;;;6.78;;
17169;SDS011;8700;48.222;16.342;2022-09-12T11:24:39;5.30;;;4.93;;
17169;SDS011;8700;48.222;16.342;2022-09-12T11:28:28;6.50;;;6.07;;
17169;SDS011;8700;48.222;16.342;2022-09-12T11:32:03;5.30;;;4.90;;
17169;SDS011;8700;48.222;16.342;2022-09-12T11:35:37;5.45;;;5.05;;
17169;SDS011;8700;48.222;16.342;2022-09-12T11:39:12;5.70;;;5.30;;
17169;SDS011;8700;48.222;16.342;2022-09-12T11:42:35;5.85;;;5.40;;
17169;SDS011;8700;48.222;16.342;2022-09-12T11:46:02;4.88;;;4.50;;
17169;SDS011;8700;48.222;16.342;2022-09-12T11:49:32;5.00;;;4.70;;
17169;SDS011;8700;48.222;16.342;2022-09-12T11:53:01;5.65;;;5.25;;
17169;SDS011;8700;48.222;16.342;2022-09-12T11:56:27;6.47;;;6.07;;
17169;SDS011;8700;48.222;16.342;2022-09-12T11:59:50;7.07;;;6.68;;
17169;SDS011;8700;48.222;16.342;2022-09-12T12:03:17;6.10;;;5.57;;
17169;SDS011;8700;48.222;16.342;2022-09-12T12:06:48;7.97;;;7.38;;
17169;SDS011;8700;48.222;16.342;2022-09-12T12:13:56;6.78;;;6.38;;
17169;SDS011;8700;48.222;16.342;2022-09-12T12:17:21;6.28;;;5.78;;
17169;SDS011;8700;48.222;16.342;2022-09-12T12:20:44;6.47;;;5.97;;
17169;SDS011;8700;48.222;16.342;2022-09-12T12:24:10;6.75;;;6.35;;
17169;SDS011;8700;48.222;16.342;2022-09-12T12:27:46;6.78;;;6.25;;
17169;SDS011;8700;48.222;16.342;2022-09-12T12:31:10;6.18;;;5.68;;
17169;SDS011;8700;48.222;16.342;2022-09-12T12:34:32;9.38;;;7.00;;
17169;SDS011;8700;48.222;16.342;2022-09-12T12:37:55;6.75;;;6.20;;
17169;SDS011;8700;48.222;16.342;2022-09-12T12:45:42;6.05;;;5.57;;
17169;SDS011;8700;48.222;16.342;2022-09-12T12:49:09;7.63;;;7.03;;
17169;SDS011;8700;48.222;16.342;2022-09-12T12:52:43;6.82;;;6.07;;
17169;SDS011;8700;48.222;16.342;2022-09-12T12:56:24;9.73;;;6.82;;
17169;SDS011;8700;48.222;16.342;2022-09-12T12:59:49;8.90;;;8.07;;
17169;SDS011;8700;48.222;16.342;2022-09-12T13:03:21;7.57;;;6.82;;
17169;SDS011;8700;48.222;16.342;2022-09-12T13:06:54;7.13;;;6.57;;
17169;SDS011;8700;48.222;16.342;2022-09-12T13:10:19;7.25;;;6.70;;
17169;SDS011;8700;48.222;16.342;2022-09-12T13:13:44;5.30;;;4.95;;
17169;SDS011;8700;48.222;16.342;2022-09-12T13:17:13;6.47;;;5.97;;
17169;SDS011;8700;48.222;16.342;2022-09-12T13:20:44;6.32;;;5.90;;
17169;SDS011;8700;48.222;16.342;2022-09-12T13:24:12;5.88;;;5.47;;
17169;SDS011;8700;48.222;16.342;2022-09-12T13:27:35;5.28;;;4.88;;
17169;SDS011;8700;48.222;16.342;2022-09-12T13:30:59;4.55;;;4.30;;
17169;SDS011;8700;48.222;16.342;2022-09-12T13:34:23;5.90;;;5.38;;
17169;SDS011;8700;48.222;16.342;2022-09-12T13:37:48;16.15;;;7.13;;
17169;SDS011;8700;48.222;16.342;2022-09-12T13:41:23;5.00;;;4.70;;
17169;SDS011;8700;48.222;16.342;2022-09-12T13:45:02;4.82;;;4.43;;
17169;SDS011;8700;48.222;16.342;2022-09-12T13:48:25;5.28;;;4.88;;
17169;SDS011;8700;48.222;16.342;2022-09-12T13:51:51;6.22;;;5.80;;
17169;SDS011;8700;48.222;16.342;2022-09-12T13:55:25;6.20;;;5.80;;
17169;SDS011;8700;48.222;16.342;2022-09-12T13:58:50;6.20;;;5.70;;
17169;SDS011;8700;48.222;16.342;2022-09-12T14:02:16;6.60;;;6.07;;
17169;SDS011;8700;48.222;16.342;2022-09-12T14:05:40;5.95;;;5.55;;
17169;SDS011;8700;48.222;16.342;2022-09-12T14:09:06;6.07;;;5.63;;
17169;SDS011;8700;48.222;16.342;2022-09-12T14:12:35;7.22;;;6.53;;
17169;SDS011;8700;48.222;16.342;2022-09-12T14:16:00;5.68;;;5.28;;
17169;SDS011;8700;48.222;16.342;2022-09-12T14:19:22;5.55;;;5.15;;
17169;SDS011;8700;48.222;16.342;2022-09-12T14:22:47;5.30;;;4.90;;
17169;SDS011;8700;48.222;16.342;2022-09-12T14:26:10;5.57;;;5.28;;
17169;SDS011;8700;48.222;16.342;2022-09-12T14:29:36;10.02;;;5.82;;
17169;SDS011;8700;48.222;16.342;2022-09-12T14:33:02;6.75;;;6.25;;
17169;SDS011;8700;48.222;16.342;2022-09-12T14:36:25;6.95;;;6.45;;
17169;SDS011;8700;48.222;16.342;2022-09-12T14:39:50;6.60;;;4.70;;
17169;SDS011;8700;48.222;16.342;2022-09-12T14:43:16;7.00;;;6.45;;
17169;SDS011;8700;48.222;16.342;2022-09-12T14:46:42;5.95;;;5.55;;
17169;SDS011;8700;48.222;16.342;2022-09-12T14:50:11;4.90;;;4.60;;
17169;SDS011;8700;48.222;16.342;2022-09-12T14:53:36;6.03;;;5.63;;
17169;SDS011;8700;48.222;16.342;2022-09-12T15:00:52;8.13;;;7.60;;
17169;SDS011;8700;48.222;16.342;2022-09-12T15:08:00;6.32;;;5.82;;
17169;SDS011;8700;48.222;16.342;2022-09-12T15:11:22;5.20;;;4.85;;
17169;SDS011;8700;48.222;16.342;2022-09-12T15:14:43;5.80;;;5.38;;
17169;SDS011;8700;48.222;16.342;2022-09-12T15:18:05;5.57;;;5.00;;
17169;SDS011;8700;48.222;16.342;2022-09-12T15:21:28;5.13;;;4.72;;
17169;SDS011;8700;48.222;16.342;2022-09-12T15:24:50;5.05;;;4.75;;
17169;SDS011;8700;48.222;16.342;2022-09-12T15:28:14;4.72;;;4.32;;
17169;SDS011;8700;48.222;16.342;2022-09-12T15:31:37;4.82;;;4.53;;
17169;SDS011;8700;48.222;16.342;2022-09-12T15:34:59;8.15;;;7.65;;
17169;SDS011;8700;48.222;16.342;2022-09-12T15:38:23;5.85;;;5.35;;
17169;SDS011;8700;48.222;16.342;2022-09-12T15:41:44;6.68;;;6.18;;
17169;SDS011;8700;48.222;16.342;2022-09-12T15:45:15;5.45;;;5.05;;
17169;SDS011;8700;48.222;16.342;2022-09-12T15:48:38;5.93;;;5.47;;
17169;SDS011;8700;48.222;16.342;2022-09-12T15:52:00;6.80;;;6.18;;
17169;SDS011;8700;48.222;16.342;2022-09-12T15:55:24;5.85;;;5.35;;
17169;SDS011;8700;48.222;16.342;2022-09-12T15:58:48;5.20;;;4.90;;
17169;SDS011;8700;48.222;16.342;2022-09-12T16:02:10;4.68;;;4.38;;
17169;SDS011;8700;48.222;16.342;2022-09-12T16:05:31;9.55;;;8.95;;
17169;SDS011;8700;48.222;16.342;2022-09-12T16:08:53;5.90;;;5.47;;
17169;SDS011;8700;48.222;16.342;2022-09-12T16:12:16;6.25;;;5.82;;
17169;SDS011;8700;48.222;16.342;2022-09-12T16:15:38;5.93;;;5.45;;
17169;SDS011;8700;48.222;16.342;2022-09-12T16:19:00;21.35;;;19.50;;
17169;SDS011;8700;48.222;16.342;2022-09-12T16:22:21;6.50;;;6.00;;
17169;SDS011;8700;48.222;16.342;2022-09-12T16:25:43;6.95;;;6.40;;
17169;SDS011;8700;48.222;16.342;2022-09-12T16:29:06;7.25;;;6.65;;
17169;SDS011;8700;48.222;16.342;2022-09-12T16:32:29;8.98;;;8.27;;
17169;SDS011;8700;48.222;16.342;2022-09-12T16:35:50;7.28;;;6.75;;
17169;SDS011;8700;48.222;16.342;2022-09-12T16:39:22;6.30;;;5.80;;
17169;SDS011;8700;48.222;16.342;2022-09-12T16:42:44;7.40;;;6.82;;
17169;SDS011;8700;48.222;16.342;2022-09-12T16:46:08;8.63;;;7.82;;
17169;SDS011;8700;48.222;16.342;2022-09-12T16:49:31;7.28;;;6.55;;
17169;SDS011;8700;48.222;16.342;2022-09-12T16:52:52;8.15;;;7.55;;
17169;SDS011;8700;48.222;16.342;2022-09-12T16:56:14;7.22;;;6.78;;
17169;SDS011;8700;48.222;16.342;2022-09-12T16:59:36;8.23;;;7.63;;
17169;SDS011;8700;48.222;16.342;2022-09-12T17:03:02;8.48;;;7.78;;
17169;SDS011;8700;48.222;16.342;2022-09-12T17:06:25;7.93;;;7.43;;
17169;SDS011;8700;48.222;16.342;2022-09-12T17:09:47;8.85;;;8.15;;
17169;SDS011;8700;48.222;16.342;2022-09-12T17:13:10;10.85;;;10.13;;
17169;SDS011;8700;48.222;16.342;2022-09-12T17:16:32;11.05;;;10.30;;
17169;SDS011;8700;48.222;16.342;2022-09-12T17:19:56;9.35;;;8.65;;
17169;SDS011;8700;48.222;16.342;2022-09-12T17:23:17;9.35;;;8.48;;
17169;SDS011;8700;48.222;16.342;2022-09-12T17:26:39;9.35;;;8.63;;
17169;SDS011;8700;48.222;16.342;2022-09-12T17:30:00;9.68;;;8.88;;
17169;SDS011;8700;48.222;16.342;2022-09-12T17:33:23;9.32;;;8.63;;
17169;SDS011;8700;48.222;16.342;2022-09-12T17:36:46;9.20;;;8.45;;
17169;SDS011;8700;48.222;16.342;2022-09-12T17:40:08;12.63;;;11.73;;
17169;SDS011;8700;48.222;16.342;2022-09-12T17:43:29;9.77;;;9.07;;
17169;SDS011;8700;48.222;16.342;2022-09-12T17:46:51;9.52;;;8.70;;
17169;SDS011;8700;48.222;16.342;2022-09-12T17:50:13;7.70;;;7.15;;
17169;SDS011;8700;48.222;16.342;2022-09-12T17:53:37;8.57;;;7.97;;
17169;SDS011;8700;48.222;16.342;2022-09-12T17:56:59;8.23;;;7.63;;
17169;SDS011;8700;48.222;16.342;2022-09-12T18:00:23;13.35;;;12.25;;
17169;SDS011;8700;48.222;16.342;2022-09-12T18:04:04;8.10;;;7.30;;
17169;SDS011;8700;48.222;16.342;2022-09-12T18:07:26;8.05;;;7.10;;
17169;SDS011;8700;48.222;16.342;2022-09-12T18:10:49;7.90;;;7.30;;
17169;SDS011;8700;48.222;16.342;2022-09-12T18:14:11;7.97;;;7.38;;
17169;SDS011;8700;48.222;16.342;2022-09-12T18:17:33;7.65;;;7.07;;
17169;SDS011;8700;48.222;16.342;2022-09-12T18:20:54;8.57;;;7.88;;
17169;SDS011;8700;48.222;16.342;2022-09-12T18:24:16;8.35;;;7.75;;
17169;SDS011;8700;48.222;16.342;2022-09-12T18:27:40;8.98;;;8.38;;
17169;SDS011;8700;48.222;16.342;2022-09-12T18:31:01;8.23;;;7.43;;
17169;SDS011;8700;48.222;16.342;2022-09-12T18:34:23;9.65;;;8.95;;
17169;SDS011;8700;48.222;16.342;2022-09-12T18:37:44;9.52;;;8.60;;
17169;SDS011;8700;48.222;16.342;2022-09-12T18:41:06;10.07;;;9.15;;
17169;SDS011;8700;48.222;16.342;2022-09-12T18:44:30;9.88;;;9.05;;
17169;SDS011;8700;48.222;16.342;2022-09-12T18:47:52;9.52;;;8.75;;
17169;SDS011;8700;48.222;16.342;2022-09-12T18:51:15;10.02;;;8.98;;
17169;SDS011;8700;48.222;16.342;2022-09-12T18:54:38;9.77;;;8.98;;
17169;SDS011;8700;48.222;16.342;2022-09-12T18:57:59;10.05;;;9.15;;
17169;SDS011;8700;48.222;16.342;2022-09-12T19:01:22;9.70;;;8.73;;
17169;SDS011;8700;48.222;16.342;2022-09-12T19:04:45;9.55;;;8.77;;
17169;SDS011;8700;48.222;16.342;2022-09-12T19:08:07;10.52;;;9.63;;
17169;SDS011;8700;48.222;16.342;2022-09-12T19:11:28;10.30;;;9.60;;
17169;SDS011;8700;48.222;16.342;2022-09-12T19:14:50;9.95;;;9.15;;
17169;SDS011;8700;48.222;16.342;2022-09-12T19:18:13;10.35;;;9.45;;
17169;SDS011;8700;48.222;16.342;2022-09-12T19:21:36;10.77;;;9.98;;
17169;SDS011;8700;48.222;16.342;2022-09-12T19:24:57;12.30;;;11.23;;
17169;SDS011;8700;48.222;16.342;2022-09-12T19:28:19;11.40;;;10.25;;
17169;SDS011;8700;48.222;16.342;2022-09-12T19:31:40;10.10;;;9.20;;
17169;SDS011;8700;48.222;16.342;2022-09-12T19:35:04;11.40;;;10.48;;
17169;SDS011;8700;48.222;16.342;2022-09-12T19:38:26;12.48;;;11.45;;
17169;SDS011;8700;48.222;16.342;2022-09-12T19:41:48;11.30;;;10.38;;
17169;SDS011;8700;48.222;16.342;2022-09-12T19:45:10;12.10;;;11.10;;
17169;SDS011;8700;48.222;16.342;2022-09-12T19:48:31;13.60;;;12.40;;
17169;SDS011;8700;48.222;16.342;2022-09-12T19:51:54;11.07;;;10.18;;
17169;SDS011;8700;48.222;16.342;2022-09-12T19:55:17;11.57;;;9.73;;
17169;SDS011;8700;48.222;16.342;2022-09-12T19:58:40;10.80;;;9.90;;
17169;SDS011;8700;48.222;16.342;2022-09-12T20:02:04;10.68;;;9.88;;
17169;SDS011;8700;48.222;16.342;2022-09-12T20:05:25;10.82;;;9.77;;
17169;SDS011;8700;48.222;16.342;2022-09-12T20:08:49;10.32;;;9.63;;
17169;SDS011;8700;48.222;16.342;2022-09-12T20:12:11;10.73;;;9.65;;
17169;SDS011;8700;48.222;16.342;2022-09-12T20:15:33;9.73;;;8.82;;
17169;SDS011;8700;48.222;16.342;2022-09-12T20:18:55;11.98;;;11.05;;
17169;SDS011;8700;48.222;16.342;2022-09-12T20:22:19;10.45;;;9.32;;
17169;SDS011;8700;48.222;16.342;2022-09-12T20:25:42;9.23;;;8.48;;
17169;SDS011;8700;48.222;16.342;2022-09-12T20:29:04;10.20;;;8.85;;
17169;SDS011;8700;48.222;16.342;2022-09-12T20:32:26;8.98;;;8.38;;
17169;SDS011;8700;48.222;16.342;2022-09-12T20:35:48;10.20;;;9.38;;
17169;SDS011;8700;48.222;16.342;2022-09-12T20:39:10;9.27;;;8.57;;
17169;SDS011;8700;48.222;16.342;2022-09-12T20:42:35;9.75;;;9.05;;
17169;SDS011;8700;48.222;16.342;2022-09-12T20:45:57;9.63;;;8.93;;